sensor_id;sensor_type;location;lat;lon;timestamp;temperature;humidity
2543;DHT22;1116;51.502;7.414;2023-04-09T00:01:26;7.30;99.90
2543;DHT22;1116;51.502;7.414;2023-04-09T00:03:57;7.30;99.90
2543;DHT22;1116;51.502;7.414;2023-04-09T00:06:32;7.30;99.90
2543;DHT22;1116;51.502;7.414;2023-04-09T00:09:03;7.30;99.90
2543;DHT22;1116;51.502;7.414;2023-04-09T00:11:35;7.20;99.90
2543;DHT22;1116;51.502;7.414;2023-04-09T00:14:07;7.20;99.90
2543;DHT22;1116;51.502;7.414;2023-04-09T00:16:38;6.90;99.90
2543;DHT22;1116;51.502;7.414;2023-04-09T00:19:12;7.10;99.90
2543;DHT22;1116;51.502;7.414;2023-04-09T00:21:46;7.00;99.90
2543;DHT22;1116;51.502;7.414;2023-04-09T00:24:17;6.90;99.90
2543;DHT22;1116;51.502;7.414;2023-04-09T00:26:48;6.80;99.90
2543;DHT22;1116;51.502;7.414;2023-04-09T00:29:20;6.70;99.90
2543;DHT22;1116;51.502;7.414;2023-04-09T00:31:54;6.70;99.90
2543;DHT22;1116;51.502;7.414;2023-04-09T00:34:25;6.70;99.90
2543;DHT22;1116;51.502;7.414;2023-04-09T00:36:59;6.60;99.90
2543;DHT22;1116;51.502;7.414;2023-04-09T00:39:30;6.60;99.90
2543;DHT22;1116;51.502;7.414;2023-04-09T00:42:01;6.60;99.90
2543;DHT22;1116;51.502;7.414;2023-04-09T00:44:32;6.50;99.90
2543;DHT22;1116;51.502;7.414;2023-04-09T00:47:06;6.50;99.90
2543;DHT22;1116;51.502;7.414;2023-04-09T00:49:37;6.40;99.90
2543;DHT22;1116;51.502;7.414;2023-04-09T00:52:11;6.40;99.90
2543;DHT22;1116;51.502;7.414;2023-04-09T00:54:42;6.20;99.90
2543;DHT22;1116;51.502;7.414;2023-04-09T00:57:17;6.20;99.90
2543;DHT22;1116;51.502;7.414;2023-04-09T00:59:48;6.20;99.90
2543;DHT22;1116;51.502;7.414;2023-04-09T01:02:21;6.50;99.90
2543;DHT22;1116;51.502;7.414;2023-04-09T01:04:53;6.10;99.90
2543;DHT22;1116;51.502;7.414;2023-04-09T01:07:34;6.10;99.90
2543;DHT22;1116;51.502;7.414;2023-04-09T01:10:15;6.00;99.90
2543;DHT22;1116;51.502;7.414;2023-04-09T01:12:53;5.90;99.90
2543;DHT22;1116;51.502;7.414;2023-04-09T01:15:33;5.90;99.90
2543;DHT22;1116;51.502;7.414;2023-04-09T01:18:10;5.90;99.90
2543;DHT22;1116;51.502;7.414;2023-04-09T01:20:48;5.80;99.90
2543;DHT22;1116;51.502;7.414;2023-04-09T01:23:31;5.80;99.90
2543;DHT22;1116;51.502;7.414;2023-04-09T01:26:10;5.80;99.90
2543;DHT22;1116;51.502;7.414;2023-04-09T01:28:52;5.70;99.90
2543;DHT22;1116;51.502;7.414;2023-04-09T01:31:28;5.70;99.90
2543;DHT22;1116;51.502;7.414;2023-04-09T01:34:01;5.60;99.90
2543;DHT22;1116;51.502;7.414;2023-04-09T01:36:34;5.60;99.90
2543;DHT22;1116;51.502;7.414;2023-04-09T01:39:05;5.60;99.90
2543;DHT22;1116;51.502;7.414;2023-04-09T01:41:37;5.50;99.90
2543;DHT22;1116;51.502;7.414;2023-04-09T01:44:12;5.40;99.90
2543;DHT22;1116;51.502;7.414;2023-04-09T01:46:45;5.40;99.90
2543;DHT22;1116;51.502;7.414;2023-04-09T01:49:17;5.40;99.90
2543;DHT22;1116;51.502;7.414;2023-04-09T01:51:48;5.30;99.90
2543;DHT22;1116;51.502;7.414;2023-04-09T01:54:19;5.30;99.90
2543;DHT22;1116;51.502;7.414;2023-04-09T01:56:50;5.20;99.90
2543;DHT22;1116;51.502;7.414;2023-04-09T01:59:24;5.20;99.90
2543;DHT22;1116;51.502;7.414;2023-04-09T02:02:00;5.20;99.90
2543;DHT22;1116;51.502;7.414;2023-04-09T02:04:33;5.20;99.90
2543;DHT22;1116;51.502;7.414;2023-04-09T02:07:07;5.10;99.90
2543;DHT22;1116;51.502;7.414;2023-04-09T02:09:40;5.10;99.90
2543;DHT22;1116;51.502;7.414;2023-04-09T02:12:15;5.00;99.90
2543;DHT22;1116;51.502;7.414;2023-04-09T02:14:51;5.00;99.90
2543;DHT22;1116;51.502;7.414;2023-04-09T02:17:22;5.00;99.90
2543;DHT22;1116;51.502;7.414;2023-04-09T02:19:53;5.00;99.90
2543;DHT22;1116;51.502;7.414;2023-04-09T02:22:24;4.90;99.90
2543;DHT22;1116;51.502;7.414;2023-04-09T02:24:55;4.80;99.90
2543;DHT22;1116;51.502;7.414;2023-04-09T02:27:26;4.80;99.90
2543;DHT22;1116;51.502;7.414;2023-04-09T02:30:00;4.80;99.90
2543;DHT22;1116;51.502;7.414;2023-04-09T02:32:31;4.80;99.90
2543;DHT22;1116;51.502;7.414;2023-04-09T02:35:03;4.70;99.90
2543;DHT22;1116;51.502;7.414;2023-04-09T02:37:34;4.70;99.90
2543;DHT22;1116;51.502;7.414;2023-04-09T02:40:06;4.50;99.90
2543;DHT22;1116;51.502;7.414;2023-04-09T02:42:37;4.50;99.90
2543;DHT22;1116;51.502;7.414;2023-04-09T02:45:11;4.50;99.90
2543;DHT22;1116;51.502;7.414;2023-04-09T02:47:42;4.40;99.90
2543;DHT22;1116;51.502;7.414;2023-04-09T02:50:14;4.40;99.90
2543;DHT22;1116;51.502;7.414;2023-04-09T02:52:45;4.40;99.90
2543;DHT22;1116;51.502;7.414;2023-04-09T02:55:19;4.30;99.90
2543;DHT22;1116;51.502;7.414;2023-04-09T02:57:50;4.30;99.90
2543;DHT22;1116;51.502;7.414;2023-04-09T03:00:23;4.30;99.90
2543;DHT22;1116;51.502;7.414;2023-04-09T03:02:54;4.20;99.90
2543;DHT22;1116;51.502;7.414;2023-04-09T03:05:26;4.20;99.90
2543;DHT22;1116;51.502;7.414;2023-04-09T03:07:57;4.20;99.90
2543;DHT22;1116;51.502;7.414;2023-04-09T03:10:28;4.20;99.90
2543;DHT22;1116;51.502;7.414;2023-04-09T03:12:59;4.10;99.90
2543;DHT22;1116;51.502;7.414;2023-04-09T03:15:32;4.20;99.90
2543;DHT22;1116;51.502;7.414;2023-04-09T03:18:03;4.10;99.90
2543;DHT22;1116;51.502;7.414;2023-04-09T03:20:37;4.20;99.90
2543;DHT22;1116;51.502;7.414;2023-04-09T03:23:09;4.00;99.90
2543;DHT22;1116;51.502;7.414;2023-04-09T03:25:40;4.00;99.90
2543;DHT22;1116;51.502;7.414;2023-04-09T03:28:11;4.00;99.90
2543;DHT22;1116;51.502;7.414;2023-04-09T03:30:45;4.00;99.90
2543;DHT22;1116;51.502;7.414;2023-04-09T03:33:15;3.50;99.90
2543;DHT22;1116;51.502;7.414;2023-04-09T03:35:47;3.90;99.90
2543;DHT22;1116;51.502;7.414;2023-04-09T03:38:18;3.90;99.90
2543;DHT22;1116;51.502;7.414;2023-04-09T03:40:50;3.90;99.90
2543;DHT22;1116;51.502;7.414;2023-04-09T03:43:21;3.90;99.90
2543;DHT22;1116;51.502;7.414;2023-04-09T03:45:54;3.80;99.90
2543;DHT22;1116;51.502;7.414;2023-04-09T03:48:28;3.80;99.90
2543;DHT22;1116;51.502;7.414;2023-04-09T03:50:59;3.80;99.90
2543;DHT22;1116;51.502;7.414;2023-04-09T03:53:30;3.80;99.90
2543;DHT22;1116;51.502;7.414;2023-04-09T03:56:01;3.80;99.90
2543;DHT22;1116;51.502;7.414;2023-04-09T03:58:32;3.80;99.90
2543;DHT22;1116;51.502;7.414;2023-04-09T04:01:06;3.80;99.90
2543;DHT22;1116;51.502;7.414;2023-04-09T04:03:39;3.80;99.90
2543;DHT22;1116;51.502;7.414;2023-04-09T04:06:11;3.80;99.90
2543;DHT22;1116;51.502;7.414;2023-04-09T04:08:42;3.80;99.90
2543;DHT22;1116;51.502;7.414;2023-04-09T04:11:13;3.70;99.90
2543;DHT22;1116;51.502;7.414;2023-04-09T04:13:44;3.70;99.90
2543;DHT22;1116;51.502;7.414;2023-04-09T04:16:17;3.70;99.90
2543;DHT22;1116;51.502;7.414;2023-04-09T04:18:49;3.70;99.90
2543;DHT22;1116;51.502;7.414;2023-04-09T04:21:20;3.70;99.90
2543;DHT22;1116;51.502;7.414;2023-04-09T04:23:51;3.60;99.90
2543;DHT22;1116;51.502;7.414;2023-04-09T04:26:22;3.60;99.90
2543;DHT22;1116;51.502;7.414;2023-04-09T04:28:54;3.60;99.90
2543;DHT22;1116;51.502;7.414;2023-04-09T04:31:27;3.60;99.90
2543;DHT22;1116;51.502;7.414;2023-04-09T04:34:02;3.70;99.90
2543;DHT22;1116;51.502;7.414;2023-04-09T04:36:33;3.60;99.90
2543;DHT22;1116;51.502;7.414;2023-04-09T04:39:04;3.60;99.90
2543;DHT22;1116;51.502;7.414;2023-04-09T04:41:35;3.60;99.90
2543;DHT22;1116;51.502;7.414;2023-04-09T04:44:06;3.60;99.90
2543;DHT22;1116;51.502;7.414;2023-04-09T04:46:42;3.60;99.90
2543;DHT22;1116;51.502;7.414;2023-04-09T04:49:13;3.60;99.90
2543;DHT22;1116;51.502;7.414;2023-04-09T04:51:44;3.60;99.90
2543;DHT22;1116;51.502;7.414;2023-04-09T04:54:15;3.50;99.90
2543;DHT22;1116;51.502;7.414;2023-04-09T04:56:46;3.50;99.90
2543;DHT22;1116;51.502;7.414;2023-04-09T04:59:17;3.50;99.90
2543;DHT22;1116;51.502;7.414;2023-04-09T05:01:51;3.50;99.90
2543;DHT22;1116;51.502;7.414;2023-04-09T05:04:22;3.50;99.90
2543;DHT22;1116;51.502;7.414;2023-04-09T05:06:54;3.50;99.90
2543;DHT22;1116;51.502;7.414;2023-04-09T05:09:25;3.60;99.90
2543;DHT22;1116;51.502;7.414;2023-04-09T05:11:56;3.50;99.90
2543;DHT22;1116;51.502;7.414;2023-04-09T05:14:28;3.60;99.90
2543;DHT22;1116;51.502;7.414;2023-04-09T05:17:02;3.60;99.90
2543;DHT22;1116;51.502;7.414;2023-04-09T05:19:33;3.60;99.90
2543;DHT22;1116;51.502;7.414;2023-04-09T05:24:48;3.60;99.90
2543;DHT22;1116;51.502;7.414;2023-04-09T05:27:19;3.70;99.90
2543;DHT22;1116;51.502;7.414;2023-04-09T05:29:52;3.70;99.90
2543;DHT22;1116;51.502;7.414;2023-04-09T05:32:29;3.80;99.90
2543;DHT22;1116;51.502;7.414;2023-04-09T05:35:00;3.80;99.90
2543;DHT22;1116;51.502;7.414;2023-04-09T05:37:31;3.90;99.90
2543;DHT22;1116;51.502;7.414;2023-04-09T05:40:03;3.90;99.90
2543;DHT22;1116;51.502;7.414;2023-04-09T05:42:34;4.00;99.90
2543;DHT22;1116;51.502;7.414;2023-04-09T05:45:07;4.00;99.90
2543;DHT22;1116;51.502;7.414;2023-04-09T05:47:41;4.10;99.90
2543;DHT22;1116;51.502;7.414;2023-04-09T05:50:12;4.10;99.90
2543;DHT22;1116;51.502;7.414;2023-04-09T05:52:43;4.10;99.90
2543;DHT22;1116;51.502;7.414;2023-04-09T05:55:14;4.20;99.90
2543;DHT22;1116;51.502;7.414;2023-04-09T05:57:45;4.30;99.90
2543;DHT22;1116;51.502;7.414;2023-04-09T06:00:16;4.40;99.90
2543;DHT22;1116;51.502;7.414;2023-04-09T06:02:51;4.40;99.90
2543;DHT22;1116;51.502;7.414;2023-04-09T06:05:22;4.60;99.90
2543;DHT22;1116;51.502;7.414;2023-04-09T06:07:53;4.70;99.90
2543;DHT22;1116;51.502;7.414;2023-04-09T06:10:24;5.00;99.90
2543;DHT22;1116;51.502;7.414;2023-04-09T06:16:18;7.40;99.90
2543;DHT22;1116;51.502;7.414;2023-04-09T06:18:53;8.70;72.20
2543;DHT22;1116;51.502;7.414;2023-04-09T06:21:24;9.70;53.00
2543;DHT22;1116;51.502;7.414;2023-04-09T06:23:55;10.70;39.40
2543;DHT22;1116;51.502;7.414;2023-04-09T06:26:29;11.10;31.20
2543;DHT22;1116;51.502;7.414;2023-04-09T06:29:00;11.80;24.30
2543;DHT22;1116;51.502;7.414;2023-04-09T06:31:32;12.20;20.30
2543;DHT22;1116;51.502;7.414;2023-04-09T06:34:05;12.60;16.90
2543;DHT22;1116;51.502;7.414;2023-04-09T06:36:37;13.00;13.50
2543;DHT22;1116;51.502;7.414;2023-04-09T06:39:11;13.20;12.70
2543;DHT22;1116;51.502;7.414;2023-04-09T06:41:42;13.50;10.50
2543;DHT22;1116;51.502;7.414;2023-04-09T06:44:13;14.30;9.40
2543;DHT22;1116;51.502;7.414;2023-04-09T06:46:44;13.60;8.00
2543;DHT22;1116;51.502;7.414;2023-04-09T06:49:40;13.80;5.20
2543;DHT22;1116;51.502;7.414;2023-04-09T06:53:13;14.00;5.70
2543;DHT22;1116;51.502;7.414;2023-04-09T06:55:44;13.90;3.60
2543;DHT22;1116;51.502;7.414;2023-04-09T06:58:15;13.80;3.50
2543;DHT22;1116;51.502;7.414;2023-04-09T07:00:47;14.10;4.70
2543;DHT22;1116;51.502;7.414;2023-04-09T07:03:19;14.50;5.40
2543;DHT22;1116;51.502;7.414;2023-04-09T07:05:53;14.90;4.20
2543;DHT22;1116;51.502;7.414;2023-04-09T07:08:24;14.90;1.00
2543;DHT22;1116;51.502;7.414;2023-04-09T07:10:55;14.70;1.00
2543;DHT22;1116;51.502;7.414;2023-04-09T07:13:27;14.60;2.30
2543;DHT22;1116;51.502;7.414;2023-04-09T07:15:58;14.20;2.90
2543;DHT22;1116;51.502;7.414;2023-04-09T07:18:29;14.40;2.40
2543;DHT22;1116;51.502;7.414;2023-04-09T07:21:06;14.80;2.40
2543;DHT22;1116;51.502;7.414;2023-04-09T07:23:36;14.80;1.40
2543;DHT22;1116;51.502;7.414;2023-04-09T07:26:08;15.20;3.00
2543;DHT22;1116;51.502;7.414;2023-04-09T07:28:39;15.50;1.00
2543;DHT22;1116;51.502;7.414;2023-04-09T07:31:12;15.50;1.00
2543;DHT22;1116;51.502;7.414;2023-04-09T07:33:44;15.30;1.20
2543;DHT22;1116;51.502;7.414;2023-04-09T07:36:18;14.70;1.50
2543;DHT22;1116;51.502;7.414;2023-04-09T07:38:49;14.50;4.00
2543;DHT22;1116;51.502;7.414;2023-04-09T07:41:20;14.40;3.00
2543;DHT22;1116;51.502;7.414;2023-04-09T07:43:51;13.60;4.90
2543;DHT22;1116;51.502;7.414;2023-04-09T07:46:22;13.00;9.00
2543;DHT22;1116;51.502;7.414;2023-04-09T07:48:53;12.30;7.80
2543;DHT22;1116;51.502;7.414;2023-04-09T07:51:26;11.90;11.60
2543;DHT22;1116;51.502;7.414;2023-04-09T07:53:58;11.70;14.90
2543;DHT22;1116;51.502;7.414;2023-04-09T07:56:29;11.50;13.90
2543;DHT22;1116;51.502;7.414;2023-04-09T07:59:00;11.40;10.80
2543;DHT22;1116;51.502;7.414;2023-04-09T08:01:30;11.40;12.70
2543;DHT22;1116;51.502;7.414;2023-04-09T08:04:04;11.50;12.30
2543;DHT22;1116;51.502;7.414;2023-04-09T08:06:38;11.60;12.20
2543;DHT22;1116;51.502;7.414;2023-04-09T08:09:09;11.60;11.30
2543;DHT22;1116;51.502;7.414;2023-04-09T08:11:40;11.80;11.10
2543;DHT22;1116;51.502;7.414;2023-04-09T08:14:13;11.60;13.70
2543;DHT22;1116;51.502;7.414;2023-04-09T08:16:45;11.80;11.20
2543;DHT22;1116;51.502;7.414;2023-04-09T08:19:17;12.00;10.70
2543;DHT22;1116;51.502;7.414;2023-04-09T08:21:51;12.10;9.90
2543;DHT22;1116;51.502;7.414;2023-04-09T08:24:22;12.20;9.40
2543;DHT22;1116;51.502;7.414;2023-04-09T08:26:53;12.00;4.70
2543;DHT22;1116;51.502;7.414;2023-04-09T08:29:26;12.10;6.90
2543;DHT22;1116;51.502;7.414;2023-04-09T08:31:57;12.30;6.00
2543;DHT22;1116;51.502;7.414;2023-04-09T08:34:28;12.50;8.10
2543;DHT22;1116;51.502;7.414;2023-04-09T08:37:01;12.60;4.70
2543;DHT22;1116;51.502;7.414;2023-04-09T08:39:33;12.70;1.00
2543;DHT22;1116;51.502;7.414;2023-04-09T08:42:05;12.80;3.00
2543;DHT22;1116;51.502;7.414;2023-04-09T08:44:39;12.70;2.70
2543;DHT22;1116;51.502;7.414;2023-04-09T08:47:10;12.60;2.50
2543;DHT22;1116;51.502;7.414;2023-04-09T08:49:42;12.70;3.30
2543;DHT22;1116;51.502;7.414;2023-04-09T08:52:18;12.80;2.40
2543;DHT22;1116;51.502;7.414;2023-04-09T08:54:50;12.90;1.00
2543;DHT22;1116;51.502;7.414;2023-04-09T08:57:21;13.20;1.60
2543;DHT22;1116;51.502;7.414;2023-04-09T08:59:52;13.20;2.70
2543;DHT22;1116;51.502;7.414;2023-04-09T09:02:25;12.80;1.00
2543;DHT22;1116;51.502;7.414;2023-04-09T09:04:58;12.90;1.00
2543;DHT22;1116;51.502;7.414;2023-04-09T09:07:32;13.00;1.10
2543;DHT22;1116;51.502;7.414;2023-04-09T09:10:04;13.20;1.00
2543;DHT22;1116;51.502;7.414;2023-04-09T09:12:37;13.20;1.00
2543;DHT22;1116;51.502;7.414;2023-04-09T09:15:24;13.20;1.00
2543;DHT22;1116;51.502;7.414;2023-04-09T09:17:57;13.40;1.40
2543;DHT22;1116;51.502;7.414;2023-04-09T09:20:28;13.30;1.00
2543;DHT22;1116;51.502;7.414;2023-04-09T09:23:02;13.20;1.00
2543;DHT22;1116;51.502;7.414;2023-04-09T09:25:37;13.20;1.00
2543;DHT22;1116;51.502;7.414;2023-04-09T09:28:09;13.10;1.80
2543;DHT22;1116;51.502;7.414;2023-04-09T09:30:41;13.00;1.00
2543;DHT22;1116;51.502;7.414;2023-04-09T09:33:14;13.20;1.00
2543;DHT22;1116;51.502;7.414;2023-04-09T09:35:48;13.30;1.00
2543;DHT22;1116;51.502;7.414;2023-04-09T09:38:23;13.40;1.00
2543;DHT22;1116;51.502;7.414;2023-04-09T09:40:54;13.50;1.00
2543;DHT22;1116;51.502;7.414;2023-04-09T09:43:39;13.80;1.00
2543;DHT22;1116;51.502;7.414;2023-04-09T09:46:12;13.90;1.00
2543;DHT22;1116;51.502;7.414;2023-04-09T09:48:43;14.10;1.00
2543;DHT22;1116;51.502;7.414;2023-04-09T09:51:17;14.20;1.00
2543;DHT22;1116;51.502;7.414;2023-04-09T09:53:54;14.30;1.00
2543;DHT22;1116;51.502;7.414;2023-04-09T09:56:30;14.30;1.00
2543;DHT22;1116;51.502;7.414;2023-04-09T09:59:06;14.20;1.00
2543;DHT22;1116;51.502;7.414;2023-04-09T10:01:37;14.20;1.00
2543;DHT22;1116;51.502;7.414;2023-04-09T10:04:13;14.30;1.00
2543;DHT22;1116;51.502;7.414;2023-04-09T10:06:44;14.30;1.00
2543;DHT22;1116;51.502;7.414;2023-04-09T10:09:22;14.60;1.00
2543;DHT22;1116;51.502;7.414;2023-04-09T10:11:56;14.50;1.00
2543;DHT22;1116;51.502;7.414;2023-04-09T10:14:27;14.40;1.00
2543;DHT22;1116;51.502;7.414;2023-04-09T10:16:59;14.30;1.00
2543;DHT22;1116;51.502;7.414;2023-04-09T10:19:34;14.30;1.00
2543;DHT22;1116;51.502;7.414;2023-04-09T10:22:10;14.30;1.00
2543;DHT22;1116;51.502;7.414;2023-04-09T10:24:44;14.40;1.00
2543;DHT22;1116;51.502;7.414;2023-04-09T10:27:16;14.60;1.00
2543;DHT22;1116;51.502;7.414;2023-04-09T10:29:48;14.70;1.00
2543;DHT22;1116;51.502;7.414;2023-04-09T10:32:21;14.60;1.00
2543;DHT22;1116;51.502;7.414;2023-04-09T10:34:56;14.30;1.00
2543;DHT22;1116;51.502;7.414;2023-04-09T10:37:28;14.10;1.00
2543;DHT22;1116;51.502;7.414;2023-04-09T10:40:02;14.20;1.00
2543;DHT22;1116;51.502;7.414;2023-04-09T10:42:39;14.20;1.00
2543;DHT22;1116;51.502;7.414;2023-04-09T10:45:13;14.40;1.00
2543;DHT22;1116;51.502;7.414;2023-04-09T10:47:49;14.60;1.00
2543;DHT22;1116;51.502;7.414;2023-04-09T10:50:24;14.60;1.00
2543;DHT22;1116;51.502;7.414;2023-04-09T10:52:56;14.90;1.00
2543;DHT22;1116;51.502;7.414;2023-04-09T10:55:38;15.00;1.00
2543;DHT22;1116;51.502;7.414;2023-04-09T10:58:11;14.70;1.00
2543;DHT22;1116;51.502;7.414;2023-04-09T11:00:43;15.10;1.00
2543;DHT22;1116;51.502;7.414;2023-04-09T11:03:20;14.90;1.00
2543;DHT22;1116;51.502;7.414;2023-04-09T11:05:58;14.90;1.00
2543;DHT22;1116;51.502;7.414;2023-04-09T11:08:31;15.00;1.00
2543;DHT22;1116;51.502;7.414;2023-04-09T11:11:05;15.20;1.00
2543;DHT22;1116;51.502;7.414;2023-04-09T11:13:35;14.90;1.00
2543;DHT22;1116;51.502;7.414;2023-04-09T11:16:08;14.80;1.00
2543;DHT22;1116;51.502;7.414;2023-04-09T11:18:50;14.70;1.00
2543;DHT22;1116;51.502;7.414;2023-04-09T11:21:26;14.70;1.00
2543;DHT22;1116;51.502;7.414;2023-04-09T11:23:58;14.80;1.00
2543;DHT22;1116;51.502;7.414;2023-04-09T11:26:36;14.60;1.00
2543;DHT22;1116;51.502;7.414;2023-04-09T11:29:07;14.60;1.00
2543;DHT22;1116;51.502;7.414;2023-04-09T11:31:43;14.50;1.00
2543;DHT22;1116;51.502;7.414;2023-04-09T11:34:14;14.40;1.00
2543;DHT22;1116;51.502;7.414;2023-04-09T11:36:48;14.50;1.00
2543;DHT22;1116;51.502;7.414;2023-04-09T11:39:18;14.80;1.00
2543;DHT22;1116;51.502;7.414;2023-04-09T11:41:52;14.80;1.00
2543;DHT22;1116;51.502;7.414;2023-04-09T11:44:24;14.90;1.00
2543;DHT22;1116;51.502;7.414;2023-04-09T11:46:56;14.60;1.00
2543;DHT22;1116;51.502;7.414;2023-04-09T11:49:28;14.40;1.00
2543;DHT22;1116;51.502;7.414;2023-04-09T11:52:00;14.50;1.00
2543;DHT22;1116;51.502;7.414;2023-04-09T11:54:31;14.60;1.00
2543;DHT22;1116;51.502;7.414;2023-04-09T11:57:05;14.80;1.00
2543;DHT22;1116;51.502;7.414;2023-04-09T11:59:37;14.80;1.00
2543;DHT22;1116;51.502;7.414;2023-04-09T12:02:08;14.80;1.00
2543;DHT22;1116;51.502;7.414;2023-04-09T12:04:48;14.80;1.00
2543;DHT22;1116;51.502;7.414;2023-04-09T12:07:19;14.90;1.00
2543;DHT22;1116;51.502;7.414;2023-04-09T12:09:50;14.80;1.00
2543;DHT22;1116;51.502;7.414;2023-04-09T12:12:25;14.70;1.00
2543;DHT22;1116;51.502;7.414;2023-04-09T12:14:56;14.90;1.00
2543;DHT22;1116;51.502;7.414;2023-04-09T12:17:28;14.70;1.00
2543;DHT22;1116;51.502;7.414;2023-04-09T12:20:01;14.70;1.00
2543;DHT22;1116;51.502;7.414;2023-04-09T12:22:34;14.80;1.00
2543;DHT22;1116;51.502;7.414;2023-04-09T12:25:08;15.00;1.00
2543;DHT22;1116;51.502;7.414;2023-04-09T12:27:41;15.20;1.00
2543;DHT22;1116;51.502;7.414;2023-04-09T12:30:12;15.10;1.00
2543;DHT22;1116;51.502;7.414;2023-04-09T12:32:44;15.20;1.00
2543;DHT22;1116;51.502;7.414;2023-04-09T12:35:15;15.30;1.00
2543;DHT22;1116;51.502;7.414;2023-04-09T12:37:46;15.60;1.00
2543;DHT22;1116;51.502;7.414;2023-04-09T12:40:18;15.60;1.00
2543;DHT22;1116;51.502;7.414;2023-04-09T12:42:52;15.70;1.00
2543;DHT22;1116;51.502;7.414;2023-04-09T12:45:23;15.90;1.00
2543;DHT22;1116;51.502;7.414;2023-04-09T12:47:57;15.80;1.00
2543;DHT22;1116;51.502;7.414;2023-04-09T12:50:30;15.90;1.00
2543;DHT22;1116;51.502;7.414;2023-04-09T12:53:01;15.90;1.00
2543;DHT22;1116;51.502;7.414;2023-04-09T12:55:32;16.20;1.00
2543;DHT22;1116;51.502;7.414;2023-04-09T12:58:05;16.30;1.00
2543;DHT22;1116;51.502;7.414;2023-04-09T13:00:37;16.20;1.00
2543;DHT22;1116;51.502;7.414;2023-04-09T13:03:08;16.20;1.00
2543;DHT22;1116;51.502;7.414;2023-04-09T13:05:39;16.30;1.00
2543;DHT22;1116;51.502;7.414;2023-04-09T13:08:10;16.30;1.00
2543;DHT22;1116;51.502;7.414;2023-04-09T13:10:41;16.50;1.00
2543;DHT22;1116;51.502;7.414;2023-04-09T13:13:15;16.60;1.00
2543;DHT22;1116;51.502;7.414;2023-04-09T13:15:47;16.50;1.00
2543;DHT22;1116;51.502;7.414;2023-04-09T13:18:20;16.50;1.00
2543;DHT22;1116;51.502;7.414;2023-04-09T13:20:51;16.80;1.00
2543;DHT22;1116;51.502;7.414;2023-04-09T13:23:23;17.00;1.00
2543;DHT22;1116;51.502;7.414;2023-04-09T13:25:54;17.40;1.00
2543;DHT22;1116;51.502;7.414;2023-04-09T13:28:28;17.40;1.00
2543;DHT22;1116;51.502;7.414;2023-04-09T13:30:59;17.20;1.00
2543;DHT22;1116;51.502;7.414;2023-04-09T13:33:30;17.30;1.00
2543;DHT22;1116;51.502;7.414;2023-04-09T13:36:02;17.20;1.00
2543;DHT22;1116;51.502;7.414;2023-04-09T13:38:33;17.30;1.00
2543;DHT22;1116;51.502;7.414;2023-04-09T13:41:05;17.00;1.00
2543;DHT22;1116;51.502;7.414;2023-04-09T13:43:38;16.90;1.00
2543;DHT22;1116;51.502;7.414;2023-04-09T13:46:10;17.00;1.00
2543;DHT22;1116;51.502;7.414;2023-04-09T13:48:42;17.10;1.00
2543;DHT22;1116;51.502;7.414;2023-04-09T13:51:13;17.20;1.00
2543;DHT22;1116;51.502;7.414;2023-04-09T13:53:44;17.30;1.00
2543;DHT22;1116;51.502;7.414;2023-04-09T13:56:16;17.40;1.00
2543;DHT22;1116;51.502;7.414;2023-04-09T13:58:50;17.40;1.00
2543;DHT22;1116;51.502;7.414;2023-04-09T14:01:21;17.30;1.00
2543;DHT22;1116;51.502;7.414;2023-04-09T14:03:54;17.40;1.00
2543;DHT22;1116;51.502;7.414;2023-04-09T14:06:25;17.20;1.00
2543;DHT22;1116;51.502;7.414;2023-04-09T14:08:56;17.00;1.00
2543;DHT22;1116;51.502;7.414;2023-04-09T14:11:30;16.80;1.00
2543;DHT22;1116;51.502;7.414;2023-04-09T14:14:06;17.00;1.00
2543;DHT22;1116;51.502;7.414;2023-04-09T14:16:38;17.10;1.00
2543;DHT22;1116;51.502;7.414;2023-04-09T14:19:08;17.50;1.00
2543;DHT22;1116;51.502;7.414;2023-04-09T14:21:40;17.20;1.00
2543;DHT22;1116;51.502;7.414;2023-04-09T14:24:11;17.20;1.00
2543;DHT22;1116;51.502;7.414;2023-04-09T14:26:42;17.20;1.00
2543;DHT22;1116;51.502;7.414;2023-04-09T14:29:15;17.20;1.00
2543;DHT22;1116;51.502;7.414;2023-04-09T14:31:46;17.30;1.00
2543;DHT22;1116;51.502;7.414;2023-04-09T14:34:17;17.10;1.00
2543;DHT22;1116;51.502;7.414;2023-04-09T14:36:48;17.30;1.00
2543;DHT22;1116;51.502;7.414;2023-04-09T14:39:19;17.40;1.00
2543;DHT22;1116;51.502;7.414;2023-04-09T14:41:53;17.30;1.00
2543;DHT22;1116;51.502;7.414;2023-04-09T14:44:27;17.40;1.00
2543;DHT22;1116;51.502;7.414;2023-04-09T14:46:58;17.50;1.00
2543;DHT22;1116;51.502;7.414;2023-04-09T14:49:29;17.00;1.00
2543;DHT22;1116;51.502;7.414;2023-04-09T14:52:00;16.80;1.00
2543;DHT22;1116;51.502;7.414;2023-04-09T14:54:31;16.50;1.00
2543;DHT22;1116;51.502;7.414;2023-04-09T14:57:04;16.50;1.00
2543;DHT22;1116;51.502;7.414;2023-04-09T14:59:38;16.50;1.00
2543;DHT22;1116;51.502;7.414;2023-04-09T15:02:09;16.50;1.00
2543;DHT22;1116;51.502;7.414;2023-04-09T15:04:41;16.50;1.00
2543;DHT22;1116;51.502;7.414;2023-04-09T15:07:15;16.30;1.00
2543;DHT22;1116;51.502;7.414;2023-04-09T15:09:46;16.20;1.00
2543;DHT22;1116;51.502;7.414;2023-04-09T15:12:17;16.10;1.00
2543;DHT22;1116;51.502;7.414;2023-04-09T15:14:54;15.90;1.00
2543;DHT22;1116;51.502;7.414;2023-04-09T15:17:25;15.90;1.00
2543;DHT22;1116;51.502;7.414;2023-04-09T15:19:57;15.80;1.00
2543;DHT22;1116;51.502;7.414;2023-04-09T15:22:28;15.70;1.00
2543;DHT22;1116;51.502;7.414;2023-04-09T15:24:59;15.60;1.00
2543;DHT22;1116;51.502;7.414;2023-04-09T15:27:30;15.60;1.00
2543;DHT22;1116;51.502;7.414;2023-04-09T15:30:05;15.70;1.00
2543;DHT22;1116;51.502;7.414;2023-04-09T15:32:39;15.70;1.00
2543;DHT22;1116;51.502;7.414;2023-04-09T15:35:10;15.60;1.00
2543;DHT22;1116;51.502;7.414;2023-04-09T15:37:46;15.50;1.00
2543;DHT22;1116;51.502;7.414;2023-04-09T15:40:17;15.60;1.00
2543;DHT22;1116;51.502;7.414;2023-04-09T15:42:48;15.60;1.00
2543;DHT22;1116;51.502;7.414;2023-04-09T15:45:22;15.60;1.00
2543;DHT22;1116;51.502;7.414;2023-04-09T15:47:53;15.60;1.00
2543;DHT22;1116;51.502;7.414;2023-04-09T15:50:27;15.60;1.00
2543;DHT22;1116;51.502;7.414;2023-04-09T15:52:58;15.60;1.00
2543;DHT22;1116;51.502;7.414;2023-04-09T15:55:30;15.60;1.00
2543;DHT22;1116;51.502;7.414;2023-04-09T15:58:02;15.80;1.00
2543;DHT22;1116;51.502;7.414;2023-04-09T16:00:39;15.60;1.00
2543;DHT22;1116;51.502;7.414;2023-04-09T16:03:10;15.70;1.00
2543;DHT22;1116;51.502;7.414;2023-04-09T16:05:41;15.80;1.00
2543;DHT22;1116;51.502;7.414;2023-04-09T16:08:12;15.80;1.00
2543;DHT22;1116;51.502;7.414;2023-04-09T16:10:43;15.90;1.00
2543;DHT22;1116;51.502;7.414;2023-04-09T16:13:14;15.80;1.00
2543;DHT22;1116;51.502;7.414;2023-04-09T16:15:47;15.60;1.00
2543;DHT22;1116;51.502;7.414;2023-04-09T16:18:18;15.50;1.00
2543;DHT22;1116;51.502;7.414;2023-04-09T16:20:51;15.30;1.00
2543;DHT22;1116;51.502;7.414;2023-04-09T16:23:27;15.40;1.00
2543;DHT22;1116;51.502;7.414;2023-04-09T16:26:01;15.30;1.00
2543;DHT22;1116;51.502;7.414;2023-04-09T16:28:32;15.30;1.00
2543;DHT22;1116;51.502;7.414;2023-04-09T16:31:08;15.30;1.00
2543;DHT22;1116;51.502;7.414;2023-04-09T16:33:39;15.20;1.00
2543;DHT22;1116;51.502;7.414;2023-04-09T16:36:10;15.10;1.00
2543;DHT22;1116;51.502;7.414;2023-04-09T16:38:41;15.00;1.00
2543;DHT22;1116;51.502;7.414;2023-04-09T16:41:12;15.00;1.00
2543;DHT22;1116;51.502;7.414;2023-04-09T16:43:43;15.00;1.00
2543;DHT22;1116;51.502;7.414;2023-04-09T16:46:19;14.90;1.00
2543;DHT22;1116;51.502;7.414;2023-04-09T16:48:50;14.80;1.00
2543;DHT22;1116;51.502;7.414;2023-04-09T16:51:22;14.70;1.00
2543;DHT22;1116;51.502;7.414;2023-04-09T16:53:53;14.70;1.00
2543;DHT22;1116;51.502;7.414;2023-04-09T16:56:24;14.70;1.00
2543;DHT22;1116;51.502;7.414;2023-04-09T16:58:57;14.60;1.00